CMA CGM Loire — 9HA3739 — position and weather

sailwx.info

Track history (hours):
 
Tides and Currents Weather Stations Pressure Air Temp Water Temp Dewpoint Dewpoint Depression Visibility Wind Speed Wind Dir Waves Ship Positions

CMA CGM Loire

Last reported at 2017-Oct-03 17:52 UTC. Time now 2017-Oct-18 20:35 UTC.
Position N 36°09' E 014°51'.
Warning: this ship's position is 15 days out of date.

Length 300 m; draft 11.4 m.

Type: Ship (hazmat cat A). MMSI: 229947000.

Date/timePositionNaut miles runAvg speedWind from/ knotsBaromVisibWave heightAir tempDewpointWater temp
2017-Oct-03 17:52N 36°09' E 014°51'719.1
2017-Oct-03 17:30N 36°11' E 014°43'1018.8
2017-Oct-03 17:00N 36°14' E 014°31'918.6
2017-Oct-03 16:30N 36°17' E 014°20'918.5
2017-Oct-03 16:00N 36°20' E 014°10'918.6
2017-Oct-03 15:30N 36°24' E 013°59'918.5
2017-Oct-03 15:00N 36°27' E 013°48'69217.9
2017-Oct-02 00:15N 36°29' W 000°32'517.6
2017-Oct-01 23:59N 36°28' W 000°38'21918.7
2017-Oct-01 12:17N 36°00' W 005°07'518.9
2017-Oct-01 12:00N 35°59' W 005°13'1019.0
2017-Oct-01 11:30N 35°58' W 005°25'3817.4
2017-Oct-01 09:19N 35°54' W 006°12'618.0
2017-Oct-01 09:00N 35°54' W 006°19'4817.9
2017-Oct-01 06:17N 35°56' W 007°18'518.3
2017-Oct-01 06:00N 35°56' W 007°25'918.1
2017-Oct-01 05:30N 35°56' W 007°36'1117.7
2017-Oct-01 04:52N 35°56' W 007°50'617.9
2017-Oct-01 04:30N 35°56' W 007°58'918.0
2017-Oct-01 04:00N 35°57' W 008°09'2217.7
2017-Oct-01 02:45N 35°58' W 008°37'  
2017-Sep-28 22:03N 39°54' W 027°49'117.5
2017-Sep-28 22:00N 39°54' W 027°51'917.8
2017-Sep-28 21:30N 39°56' W 028°02'918.2
2017-Sep-28 21:01N 39°57' W 028°14'1018.0
2017-Sep-28 20:28N 39°58' W 028°26'818.0
2017-Sep-28 20:00N 39°59' W 028°37'918.2
2017-Sep-28 19:30N 40°01' W 028°49'918.3
2017-Sep-28 19:00N 40°02' W 029°01'917.9
2017-Sep-28 18:30N 40°03' W 029°12'918.1
2017-Sep-28 18:00N 40°04' W 029°24'2418.1
2017-Sep-28 16:41N 40°08' W 029°55'3018.0
2017-Sep-28 15:01N 40°11' W 030°34'2018.0
2017-Sep-28 13:56N 40°13' W 030°59'  
Track history (hours):
 
Tides and Currents Weather Stations Pressure Air Temp Water Temp Dewpoint Dewpoint Depression Visibility Wind Speed Wind Dir Waves Ship Positions

CMA CGM Loire

Last reported at 2017-Oct-03 17:52 UTC. Time now 2017-Oct-18 20:36 UTC.
Position N 36°09' E 014°51'.
Warning: this ship's position is 15 days out of date.

Length 300 m; draft 11.4 m.

Type: Ship (hazmat cat A). MMSI: 229947000.

Date/timePositionNaut miles runAvg speedWind from/ knotsBaromVisibWave heightAir tempDewpointWater temp
2017-Oct-03 17:52N 36°09' E 014°51'719.1
2017-Oct-03 17:30N 36°11' E 014°43'1018.8
2017-Oct-03 17:00N 36°14' E 014°31'918.6
2017-Oct-03 16:30N 36°17' E 014°20'918.5
2017-Oct-03 16:00N 36°20' E 014°10'918.6
2017-Oct-03 15:30N 36°24' E 013°59'918.5
2017-Oct-03 15:00N 36°27' E 013°48'69217.9
2017-Oct-02 00:15N 36°29' W 000°32'517.6
2017-Oct-01 23:59N 36°28' W 000°38'21918.7
2017-Oct-01 12:17N 36°00' W 005°07'518.9
2017-Oct-01 12:00N 35°59' W 005°13'1019.0
2017-Oct-01 11:30N 35°58' W 005°25'3817.4
2017-Oct-01 09:19N 35°54' W 006°12'618.0
2017-Oct-01 09:00N 35°54' W 006°19'4817.9
2017-Oct-01 06:17N 35°56' W 007°18'518.3
2017-Oct-01 06:00N 35°56' W 007°25'918.1
2017-Oct-01 05:30N 35°56' W 007°36'1117.7
2017-Oct-01 04:52N 35°56' W 007°50'617.9
2017-Oct-01 04:30N 35°56' W 007°58'918.0
2017-Oct-01 04:00N 35°57' W 008°09'2217.7
2017-Oct-01 02:45N 35°58' W 008°37'  
2017-Sep-28 22:03N 39°54' W 027°49'117.5
2017-Sep-28 22:00N 39°54' W 027°51'917.8
2017-Sep-28 21:30N 39°56' W 028°02'918.2
2017-Sep-28 21:01N 39°57' W 028°14'1018.0
2017-Sep-28 20:28N 39°58' W 028°26'818.0
2017-Sep-28 20:00N 39°59' W 028°37'918.2
2017-Sep-28 19:30N 40°01' W 028°49'918.3
2017-Sep-28 19:00N 40°02' W 029°01'917.9
2017-Sep-28 18:30N 40°03' W 029°12'918.1
2017-Sep-28 18:00N 40°04' W 029°24'2418.1
2017-Sep-28 16:41N 40°08' W 029°55'3018.0
2017-Sep-28 15:01N 40°11' W 030°34'2018.0
2017-Sep-28 13:56N 40°13' W 030°59'  

Dump ship's entire track history